This is the latest recevied weather packets stored in our database for station/object OE6PLD-13. If no packets are shown the sender has not sent any weather packets the latest 1 day(s).
| Time | Temp. | Humidity | Pressure | Rain* | Wind** | Luminosity | Snow |
|---|---|---|---|---|---|---|---|
| 1777981675 | 26.11° C | 34% | 1011.9 hPa | 0.76 mm | 2.68 m/s, 266° | 599 W/m² | - |
| 1777981491 | 26.11° C | 34% | 1012.1 hPa | 0.76 mm | 2.24 m/s, 266° | 617 W/m² | - |
| 1777981308 | 25.56° C | 35% | 1012 hPa | 0.76 mm | 0.89 m/s, 266° | 628 W/m² | - |
| 1777981125 | 26.11° C | 34% | 1012 hPa | 0.76 mm | 5.81 m/s, 266° | 623 W/m² | - |
| 1777980941 | 26.67° C | 34% | 1012.2 hPa | 0.76 mm | 3.13 m/s, 266° | 629 W/m² | - |
| 1777980758 | 26.67° C | 34% | 1012.1 hPa | 0.76 mm | 1.79 m/s, 266° | 591 W/m² | - |
| 1777980575 | 26.67° C | 33% | 1012 hPa | 0.76 mm | 2.24 m/s, 265° | 677 W/m² | - |
| 1777980391 | 26.67° C | 33% | 1012 hPa | 0.76 mm | 1.34 m/s, 263° | 707 W/m² | - |
| 1777980208 | 26.67° C | 33% | 1011.9 hPa | 0.76 mm | 0.89 m/s, 262° | 695 W/m² | - |
| 1777980024 | 27.22° C | 32% | 1012.1 hPa | 0.76 mm | 1.79 m/s, 262° | 681 W/m² | - |
| 1777979841 | 26.67° C | 33% | 1011.9 hPa | 0.76 mm | 0.89 m/s, 262° | 668 W/m² | - |
| 1777979658 | 26.11° C | 34% | 1011.9 hPa | 0.76 mm | 0.89 m/s, 263° | 649 W/m² | - |
| 1777979474 | 25.56° C | 34% | 1012.1 hPa | 0.76 mm | 2.24 m/s, 264° | 645 W/m² | - |
| 1777979291 | 25° C | 38% | 1012.2 hPa | 0.76 mm | 0.45 m/s, 266° | 553 W/m² | - |
| 1777979108 | 25.56° C | 35% | 1011.8 hPa | 0.76 mm | 4.92 m/s, 266° | 367 W/m² | - |
| 1777978924 | 25.56° C | 34% | 1012.1 hPa | 0.76 mm | 2.24 m/s, 265° | 675 W/m² | - |
| 1777978741 | 25.56° C | 35% | 1012.4 hPa | 0.76 mm | 0.89 m/s, 263° | 164 W/m² | - |
| 1777978558 | 25.56° C | 35% | 1012.1 hPa | 0.76 mm | 1.34 m/s, 264° | 651 W/m² | - |
| 1777978374 | 25.56° C | 38% | 1012.1 hPa | 0.76 mm | 1.34 m/s, 266° | 655 W/m² | - |
| 1777978191 | 25.56° C | 37% | 1012.1 hPa | 0.76 mm | 0.45 m/s, 265° | 139 W/m² | - |
| 1777978008 | 25.56° C | 37% | 1012.1 hPa | 0.76 mm | 1.79 m/s, 265° | 470 W/m² | - |
| 1777977824 | 26.11° C | 37% | 1012.3 hPa | 0.76 mm | 1.79 m/s, 264° | 576 W/m² | - |
| 1777977641 | 26.67° C | 36% | 1012.1 hPa | 0.76 mm | 0.89 m/s, 262° | 659 W/m² | - |
| 1777977457 | 25.56° C | 37% | 1012.3 hPa | 0.76 mm | 2.24 m/s, 262° | 663 W/m² | - |
| 1777977274 | 25.56° C | 36% | 1012.1 hPa | 0.76 mm | 0.89 m/s, 262° | 645 W/m² | - |
* Rain latest hour (hover to see other rain measurements)
** Current wind speed in m/s (hover to see current wind gust speed)